sensor_id;sensor_type;location;lat;lon;timestamp;pressure;altitude;pressure_sealevel;temperature;humidity
44001;BME280;29660;42.892;24.710;2023-03-16T00:04:50;95980.78;;;7.53;84.34
44001;BME280;29660;42.892;24.710;2023-03-16T00:10:13;96072.13;;;8.12;82.03
44001;BME280;29660;42.892;24.710;2023-03-16T00:15:35;95809.56;;;6.22;85.24
44001;BME280;29660;42.892;24.710;2023-03-16T00:20:59;95834.44;;;6.39;83.85
44001;BME280;29660;42.892;24.710;2023-03-16T00:26:22;95748.69;;;5.65;82.45
44001;BME280;29660;42.892;24.710;2023-03-16T00:31:45;96018.06;;;7.29;85.37
44001;BME280;29660;42.892;24.710;2023-03-16T00:37:07;96004.16;;;7.19;87.15
44001;BME280;29660;42.892;24.710;2023-03-16T00:42:29;96031.00;;;7.31;87.04
44001;BME280;29660;42.892;24.710;2023-03-16T00:47:52;96037.06;;;7.18;89.14
44001;BME280;29660;42.892;24.710;2023-03-16T00:53:15;95956.50;;;6.81;88.90
44001;BME280;29660;42.892;24.710;2023-03-16T00:58:38;95778.28;;;5.67;90.25
44001;BME280;29660;42.892;24.710;2023-03-16T01:04:01;95775.50;;;5.58;91.04
44001;BME280;29660;42.892;24.710;2023-03-16T01:09:23;96036.91;;;7.28;90.16
44001;BME280;29660;42.892;24.710;2023-03-16T01:14:46;96074.47;;;7.35;91.65
44001;BME280;29660;42.892;24.710;2023-03-16T01:20:09;95793.03;;;5.49;94.38
44001;BME280;29660;42.892;24.710;2023-03-16T01:25:36;95770.66;;;5.23;93.19
44001;BME280;29660;42.892;24.710;2023-03-16T01:31:05;96092.47;;;7.19;94.61
44001;BME280;29660;42.892;24.710;2023-03-16T01:36:29;95835.53;;;5.34;96.35
44001;BME280;29660;42.892;24.710;2023-03-16T01:41:56;96102.34;;;7.13;94.59
44001;BME280;29660;42.892;24.710;2023-03-16T01:47:18;96025.16;;;6.58;95.87
44001;BME280;29660;42.892;24.710;2023-03-16T01:52:40;96063.25;;;6.62;95.34
44001;BME280;29660;42.892;24.710;2023-03-16T01:58:03;96097.50;;;6.78;95.50
44001;BME280;29660;42.892;24.710;2023-03-16T02:03:26;96143.16;;;6.94;96.23
44001;BME280;29660;42.892;24.710;2023-03-16T02:08:54;95863.81;;;5.09;93.49
44001;BME280;29660;42.892;24.710;2023-03-16T02:14:18;95851.81;;;4.93;95.83
44001;BME280;29660;42.892;24.710;2023-03-16T02:25:16;96012.41;;;5.88;95.49
44001;BME280;29660;42.892;24.710;2023-03-16T02:30:39;96149.66;;;6.58;96.51
44001;BME280;29660;42.892;24.710;2023-03-16T02:36:02;96178.75;;;6.63;95.66
44001;BME280;29660;42.892;24.710;2023-03-16T02:41:24;95897.97;;;4.66;95.80
44001;BME280;29660;42.892;24.710;2023-03-16T02:46:53;96122.38;;;6.05;96.84
44001;BME280;29660;42.892;24.710;2023-03-16T02:52:17;96112.00;;;5.79;96.25
44001;BME280;29660;42.892;24.710;2023-03-16T02:57:39;95904.06;;;4.23;97.42
44001;BME280;29660;42.892;24.710;2023-03-16T03:03:06;96187.09;;;5.83;97.59
44001;BME280;29660;42.892;24.710;2023-03-16T03:08:31;95941.50;;;4.30;98.01
44001;BME280;29660;42.892;24.710;2023-03-16T03:13:54;95921.59;;;4.03;98.86
44001;BME280;29660;42.892;24.710;2023-03-16T03:19:19;96217.06;;;5.74;96.96
44001;BME280;29660;42.892;24.710;2023-03-16T03:24:41;95968.63;;;3.86;99.10
44001;BME280;29660;42.892;24.710;2023-03-16T03:30:04;96200.34;;;5.34;96.45
44001;BME280;29660;42.892;24.710;2023-03-16T03:35:27;96138.47;;;4.96;95.91
44001;BME280;29660;42.892;24.710;2023-03-16T03:40:53;96214.91;;;5.36;94.91
44001;BME280;29660;42.892;24.710;2023-03-16T03:46:15;96170.41;;;4.94;96.10
44001;BME280;29660;42.892;24.710;2023-03-16T03:51:37;96037.66;;;4.03;93.88
44001;BME280;29660;42.892;24.710;2023-03-16T03:57:04;96297.84;;;5.56;93.86
44001;BME280;29660;42.892;24.710;2023-03-16T04:02:26;96008.72;;;3.73;91.97
44001;BME280;29660;42.892;24.710;2023-03-16T04:07:49;96229.59;;;5.03;93.26
44001;BME280;29660;42.892;24.710;2023-03-16T04:13:16;96307.19;;;5.33;92.53
44001;BME280;29660;42.892;24.710;2023-03-16T04:18:38;96311.69;;;5.32;95.04
44001;BME280;29660;42.892;24.710;2023-03-16T04:24:02;96254.44;;;4.87;94.08
44001;BME280;29660;42.892;24.710;2023-03-16T04:29:29;96017.75;;;3.46;95.29
44001;BME280;29660;42.892;24.710;2023-03-16T04:34:53;96314.34;;;5.27;95.02
44001;BME280;29660;42.892;24.710;2023-03-16T04:40:25;96261.31;;;4.93;95.37
44001;BME280;29660;42.892;24.710;2023-03-16T04:45:56;96028.28;;;3.36;93.78
44001;BME280;29660;42.892;24.710;2023-03-16T04:51:22;96110.50;;;3.68;96.34
44001;BME280;29660;42.892;24.710;2023-03-16T04:57:13;95978.19;;;2.64;97.02
44001;BME280;29660;42.892;24.710;2023-03-16T05:02:39;96109.19;;;3.51;95.00
44001;BME280;29660;42.892;24.710;2023-03-16T05:08:02;96357.50;;;5.07;95.99
44001;BME280;29660;42.892;24.710;2023-03-16T05:13:28;96342.94;;;4.95;94.62
44001;BME280;29660;42.892;24.710;2023-03-16T05:18:56;96318.69;;;4.41;95.13
44001;BME280;29660;42.892;24.710;2023-03-16T05:24:20;96384.97;;;4.65;95.29
44001;BME280;29660;42.892;24.710;2023-03-16T05:29:42;96409.03;;;4.64;95.24
44001;BME280;29660;42.892;24.710;2023-03-16T05:35:08;96438.03;;;4.54;96.88
44001;BME280;29660;42.892;24.710;2023-03-16T05:40:35;96132.72;;;2.64;96.28
44001;BME280;29660;42.892;24.710;2023-03-16T05:46:09;96354.75;;;3.95;97.68
44001;BME280;29660;42.892;24.710;2023-03-16T05:51:31;96404.94;;;4.10;97.41
44001;BME280;29660;42.892;24.710;2023-03-16T05:56:56;96158.66;;;2.45;96.79
44001;BME280;29660;42.892;24.710;2023-03-16T06:02:18;96146.44;;;2.24;97.70
44001;BME280;29660;42.892;24.710;2023-03-16T06:07:41;96392.69;;;3.74;97.99
44001;BME280;29660;42.892;24.710;2023-03-16T06:13:03;96446.88;;;4.07;99.01
44001;BME280;29660;42.892;24.710;2023-03-16T06:18:26;96456.38;;;4.03;99.08
44001;BME280;29660;42.892;24.710;2023-03-16T06:23:48;96385.63;;;3.37;100.00
44001;BME280;29660;42.892;24.710;2023-03-16T06:29:11;96411.63;;;3.65;100.00
44001;BME280;29660;42.892;24.710;2023-03-16T06:34:34;96186.63;;;2.14;100.00
44001;BME280;29660;42.892;24.710;2023-03-16T06:40:00;96474.47;;;3.84;99.60
44001;BME280;29660;42.892;24.710;2023-03-16T06:45:22;96202.78;;;1.95;100.00
44001;BME280;29660;42.892;24.710;2023-03-16T06:50:48;96209.97;;;2.05;98.75
44001;BME280;29660;42.892;24.710;2023-03-16T06:56:16;96229.22;;;2.11;98.45
44001;BME280;29660;42.892;24.710;2023-03-16T07:01:39;96520.41;;;3.88;100.00
44001;BME280;29660;42.892;24.710;2023-03-16T07:07:03;96479.66;;;3.63;100.00
44001;BME280;29660;42.892;24.710;2023-03-16T07:12:25;96350.34;;;2.58;100.00
44001;BME280;29660;42.892;24.710;2023-03-16T07:17:47;96510.69;;;3.51;100.00
44001;BME280;29660;42.892;24.710;2023-03-16T07:23:09;96241.91;;;1.87;100.00
44001;BME280;29660;42.892;24.710;2023-03-16T07:28:33;96565.38;;;3.66;100.00
44001;BME280;29660;42.892;24.710;2023-03-16T07:33:57;96552.38;;;3.54;100.00
44001;BME280;29660;42.892;24.710;2023-03-16T07:39:29;96582.75;;;3.62;100.00
44001;BME280;29660;42.892;24.710;2023-03-16T07:45:00;96394.41;;;2.68;100.00
44001;BME280;29660;42.892;24.710;2023-03-16T07:50:23;96290.44;;;2.06;100.00
44001;BME280;29660;42.892;24.710;2023-03-16T07:55:47;96305.66;;;2.04;100.00
44001;BME280;29660;42.892;24.710;2023-03-16T08:01:09;96324.53;;;1.96;100.00
44001;BME280;29660;42.892;24.710;2023-03-16T08:06:32;96583.56;;;3.67;100.00
44001;BME280;29660;42.892;24.710;2023-03-16T08:11:55;96535.81;;;3.27;100.00
44001;BME280;29660;42.892;24.710;2023-03-16T08:17:18;96321.81;;;1.86;100.00
44001;BME280;29660;42.892;24.710;2023-03-16T08:22:42;96543.16;;;3.25;100.00
44001;BME280;29660;42.892;24.710;2023-03-16T08:28:09;96581.91;;;3.56;100.00
44001;BME280;29660;42.892;24.710;2023-03-16T08:33:33;96272.91;;;1.85;100.00
44001;BME280;29660;42.892;24.710;2023-03-16T08:38:58;96321.03;;;2.12;100.00
44001;BME280;29660;42.892;24.710;2023-03-16T08:44:33;96609.28;;;3.87;100.00
44001;BME280;29660;42.892;24.710;2023-03-16T08:49:57;96625.41;;;3.91;100.00
44001;BME280;29660;42.892;24.710;2023-03-16T08:55:19;96511.53;;;3.25;100.00
44001;BME280;29660;42.892;24.710;2023-03-16T09:00:41;96556.03;;;3.53;100.00
44001;BME280;29660;42.892;24.710;2023-03-16T09:06:08;96593.97;;;3.84;100.00
44001;BME280;29660;42.892;24.710;2023-03-16T09:11:31;96565.94;;;3.73;100.00
44001;BME280;29660;42.892;24.710;2023-03-16T09:16:54;96383.50;;;2.59;100.00
44001;BME280;29660;42.892;24.710;2023-03-16T09:22:19;96397.41;;;2.82;100.00
44001;BME280;29660;42.892;24.710;2023-03-16T09:27:41;96561.78;;;3.82;100.00
44001;BME280;29660;42.892;24.710;2023-03-16T09:33:03;96418.25;;;2.88;100.00
44001;BME280;29660;42.892;24.710;2023-03-16T09:38:26;96621.84;;;4.12;100.00
44001;BME280;29660;42.892;24.710;2023-03-16T09:49:47;96621.44;;;4.26;97.59
44001;BME280;29660;42.892;24.710;2023-03-16T09:55:26;96675.78;;;4.27;97.68
44001;BME280;29660;42.892;24.710;2023-03-16T10:01:00;96658.94;;;4.33;97.13
44001;BME280;29660;42.892;24.710;2023-03-16T10:06:30;96657.41;;;4.37;96.28
44001;BME280;29660;42.892;24.710;2023-03-16T10:11:56;96676.47;;;4.49;95.34
44001;BME280;29660;42.892;24.710;2023-03-16T10:17:25;96658.94;;;4.33;96.61
44001;BME280;29660;42.892;24.710;2023-03-16T10:22:51;96425.50;;;3.03;94.12
44001;BME280;29660;42.892;24.710;2023-03-16T10:28:18;96344.91;;;2.38;94.88
44001;BME280;29660;42.892;24.710;2023-03-16T10:33:41;96460.94;;;3.23;94.85
44001;BME280;29660;42.892;24.710;2023-03-16T10:39:04;96670.13;;;4.50;93.21
44001;BME280;29660;42.892;24.710;2023-03-16T10:44:27;96689.09;;;4.42;95.29
44001;BME280;29660;42.892;24.710;2023-03-16T10:49:50;96337.19;;;2.26;92.80
44001;BME280;29660;42.892;24.710;2023-03-16T10:55:19;96660.56;;;4.44;92.88
44001;BME280;29660;42.892;24.710;2023-03-16T11:00:42;96214.72;;;1.49;92.00
44001;BME280;29660;42.892;24.710;2023-03-16T11:06:05;96395.78;;;2.76;92.72
44001;BME280;29660;42.892;24.710;2023-03-16T11:11:29;96435.25;;;3.03;93.21
44001;BME280;29660;42.892;24.710;2023-03-16T11:17:08;96395.09;;;2.90;91.85
44001;BME280;29660;42.892;24.710;2023-03-16T11:22:34;96680.50;;;4.67;88.00
44001;BME280;29660;42.892;24.710;2023-03-16T11:33:33;96685.81;;;4.67;87.40
44001;BME280;29660;42.892;24.710;2023-03-16T11:39:14;96678.66;;;4.62;87.66
44001;BME280;29660;42.892;24.710;2023-03-16T11:50:36;96711.47;;;4.72;89.73
44001;BME280;29660;42.892;24.710;2023-03-16T11:56:38;96404.75;;;2.80;89.36
44001;BME280;29660;42.892;24.710;2023-03-16T12:20:01;96674.66;;;4.55;90.66
44001;BME280;29660;42.892;24.710;2023-03-16T12:25:25;96421.69;;;2.89;90.93
44001;BME280;29660;42.892;24.710;2023-03-16T12:31:07;96714.13;;;4.77;92.54
44001;BME280;29660;42.892;24.710;2023-03-16T12:36:44;96712.56;;;4.81;89.55
44001;BME280;29660;42.892;24.710;2023-03-16T12:42:35;96720.69;;;4.69;91.09
44001;BME280;29660;42.892;24.710;2023-03-16T12:53:45;96714.53;;;4.58;91.28
44001;BME280;29660;42.892;24.710;2023-03-16T12:59:16;96740.53;;;4.72;93.65
44001;BME280;29660;42.892;24.710;2023-03-16T13:04:41;96753.09;;;4.59;95.05
44001;BME280;29660;42.892;24.710;2023-03-16T13:10:12;96761.50;;;4.51;96.68
44001;BME280;29660;42.892;24.710;2023-03-16T13:15:38;96434.94;;;2.40;96.63
44001;BME280;29660;42.892;24.710;2023-03-16T13:21:32;96719.91;;;4.31;96.81
44001;BME280;29660;42.892;24.710;2023-03-16T13:27:01;96783.16;;;4.48;96.94
44001;BME280;29660;42.892;24.710;2023-03-16T13:32:29;96481.88;;;2.75;97.40
44001;BME280;29660;42.892;24.710;2023-03-16T13:37:52;96714.03;;;4.24;97.25
44001;BME280;29660;42.892;24.710;2023-03-16T13:43:17;96787.44;;;4.59;98.18
44001;BME280;29660;42.892;24.710;2023-03-16T13:48:40;96640.31;;;3.75;97.26
44001;BME280;29660;42.892;24.710;2023-03-16T13:54:04;96490.50;;;2.70;97.85
44001;BME280;29660;42.892;24.710;2023-03-16T13:59:27;96784.47;;;4.51;98.94
44001;BME280;29660;42.892;24.710;2023-03-16T14:04:49;96748.59;;;4.17;100.00
44001;BME280;29660;42.892;24.710;2023-03-16T14:10:12;96685.28;;;3.58;100.00
44001;BME280;29660;42.892;24.710;2023-03-16T14:15:37;96476.22;;;2.12;100.00
44001;BME280;29660;42.892;24.710;2023-03-16T14:21:07;96806.19;;;4.26;100.00
44001;BME280;29660;42.892;24.710;2023-03-16T14:26:45;96816.19;;;4.24;100.00
44001;BME280;29660;42.892;24.710;2023-03-16T14:32:31;96813.56;;;4.24;100.00
44001;BME280;29660;42.892;24.710;2023-03-16T14:37:54;96819.88;;;4.23;100.00
44001;BME280;29660;42.892;24.710;2023-03-16T14:43:21;96726.22;;;3.66;100.00
44001;BME280;29660;42.892;24.710;2023-03-16T14:48:47;96769.09;;;4.10;100.00
44001;BME280;29660;42.892;24.710;2023-03-16T14:54:13;96755.50;;;3.97;100.00
44001;BME280;29660;42.892;24.710;2023-03-16T14:59:35;96665.50;;;3.34;100.00
44001;BME280;29660;42.892;24.710;2023-03-16T15:04:59;96794.94;;;4.08;100.00
44001;BME280;29660;42.892;24.710;2023-03-16T15:15:45;96295.44;;;0.88;100.00
44001;BME280;29660;42.892;24.710;2023-03-16T15:21:15;96655.81;;;3.12;100.00
44001;BME280;29660;42.892;24.710;2023-03-16T15:26:39;96727.34;;;3.48;100.00
44001;BME280;29660;42.892;24.710;2023-03-16T15:32:01;96521.41;;;2.09;100.00
44001;BME280;29660;42.892;24.710;2023-03-16T15:37:23;96761.09;;;3.73;100.00
44001;BME280;29660;42.892;24.710;2023-03-16T15:42:49;96689.81;;;3.14;100.00
44001;BME280;29660;42.892;24.710;2023-03-16T15:48:12;96881.09;;;4.47;100.00
44001;BME280;29660;42.892;24.710;2023-03-16T15:53:38;96887.56;;;4.61;100.00
44001;BME280;29660;42.892;24.710;2023-03-16T15:59:03;96627.16;;;2.94;100.00
44001;BME280;29660;42.892;24.710;2023-03-16T16:04:26;96639.78;;;2.92;100.00
44001;BME280;29660;42.892;24.710;2023-03-16T16:09:49;96888.22;;;4.46;100.00
44001;BME280;29660;42.892;24.710;2023-03-16T16:15:32;96648.34;;;2.82;100.00
44001;BME280;29660;42.892;24.710;2023-03-16T16:20:58;96688.31;;;2.96;100.00
44001;BME280;29660;42.892;24.710;2023-03-16T16:26:29;96642.97;;;2.50;100.00
44001;BME280;29660;42.892;24.710;2023-03-16T16:32:22;96927.00;;;4.18;100.00
44001;BME280;29660;42.892;24.710;2023-03-16T16:37:44;96682.69;;;2.49;100.00
44001;BME280;29660;42.892;24.710;2023-03-16T16:43:09;96923.25;;;3.92;100.00
44001;BME280;29660;42.892;24.710;2023-03-16T16:48:37;96872.47;;;3.36;100.00
44001;BME280;29660;42.892;24.710;2023-03-16T16:54:00;96836.56;;;3.13;100.00
44001;BME280;29660;42.892;24.710;2023-03-16T16:59:25;97024.66;;;4.18;100.00
44001;BME280;29660;42.892;24.710;2023-03-16T17:04:49;97016.59;;;4.08;100.00
44001;BME280;29660;42.892;24.710;2023-03-16T17:10:20;97032.97;;;3.88;100.00
44001;BME280;29660;42.892;24.710;2023-03-16T17:15:43;96953.91;;;3.38;100.00
44001;BME280;29660;42.892;24.710;2023-03-16T17:21:11;96787.16;;;2.31;100.00
44001;BME280;29660;42.892;24.710;2023-03-16T17:26:38;97040.78;;;4.00;100.00
44001;BME280;29660;42.892;24.710;2023-03-16T17:32:03;96998.34;;;3.63;100.00
44001;BME280;29660;42.892;24.710;2023-03-16T17:37:29;97016.84;;;3.68;100.00
44001;BME280;29660;42.892;24.710;2023-03-16T17:42:52;97010.25;;;3.49;100.00
44001;BME280;29660;42.892;24.710;2023-03-16T17:48:22;96784.53;;;2.14;100.00
44001;BME280;29660;42.892;24.710;2023-03-16T17:53:46;96833.25;;;2.17;100.00
44001;BME280;29660;42.892;24.710;2023-03-16T17:59:17;97087.66;;;3.59;100.00
44001;BME280;29660;42.892;24.710;2023-03-16T18:04:41;97062.25;;;3.19;100.00
44001;BME280;29660;42.892;24.710;2023-03-16T18:10:03;96949.25;;;2.44;100.00
44001;BME280;29660;42.892;24.710;2023-03-16T18:15:30;96774.47;;;1.26;100.00
44001;BME280;29660;42.892;24.710;2023-03-16T18:20:53;96808.31;;;1.34;100.00
44001;BME280;29660;42.892;24.710;2023-03-16T18:26:18;96646.19;;;0.13;100.00
44001;BME280;29660;42.892;24.710;2023-03-16T18:31:41;97099.03;;;2.86;100.00
44001;BME280;29660;42.892;24.710;2023-03-16T18:37:03;97124.63;;;3.02;100.00
44001;BME280;29660;42.892;24.710;2023-03-16T18:42:27;96861.66;;;1.22;100.00
44001;BME280;29660;42.892;24.710;2023-03-16T18:47:51;97077.19;;;2.45;100.00
44001;BME280;29660;42.892;24.710;2023-03-16T18:53:15;97099.00;;;2.57;100.00
44001;BME280;29660;42.892;24.710;2023-03-16T18:58:38;96852.06;;;0.93;100.00
44001;BME280;29660;42.892;24.710;2023-03-16T19:04:01;97147.06;;;2.64;100.00
44001;BME280;29660;42.892;24.710;2023-03-16T19:09:28;97156.66;;;2.70;100.00
44001;BME280;29660;42.892;24.710;2023-03-16T19:14:51;96944.78;;;1.40;100.00
44001;BME280;29660;42.892;24.710;2023-03-16T19:20:18;97167.31;;;2.76;100.00
44001;BME280;29660;42.892;24.710;2023-03-16T19:25:41;96811.41;;;0.37;100.00
44001;BME280;29660;42.892;24.710;2023-03-16T19:31:19;97178.22;;;2.67;100.00
44001;BME280;29660;42.892;24.710;2023-03-16T19:36:43;97151.31;;;2.54;100.00
44001;BME280;29660;42.892;24.710;2023-03-16T19:42:13;97190.25;;;2.63;100.00
44001;BME280;29660;42.892;24.710;2023-03-16T19:47:40;96841.19;;;0.42;100.00
44001;BME280;29660;42.892;24.710;2023-03-16T19:53:07;96889.06;;;0.80;100.00
44001;BME280;29660;42.892;24.710;2023-03-16T19:58:37;97154.31;;;2.34;100.00
44001;BME280;29660;42.892;24.710;2023-03-16T20:04:00;96858.41;;;0.38;100.00
44001;BME280;29660;42.892;24.710;2023-03-16T20:09:25;97012.75;;;1.37;100.00
44001;BME280;29660;42.892;24.710;2023-03-16T20:14:49;97156.06;;;2.16;100.00
44001;BME280;29660;42.892;24.710;2023-03-16T20:20:29;96955.00;;;0.71;100.00
44001;BME280;29660;42.892;24.710;2023-03-16T20:25:59;97152.03;;;2.02;100.00
44001;BME280;29660;42.892;24.710;2023-03-16T20:31:29;97178.69;;;2.17;100.00
44001;BME280;29660;42.892;24.710;2023-03-16T20:37:29;97124.94;;;1.90;100.00
44001;BME280;29660;42.892;24.710;2023-03-16T20:42:52;96987.91;;;0.86;100.00
44001;BME280;29660;42.892;24.710;2023-03-16T20:48:14;97111.31;;;1.69;100.00
44001;BME280;29660;42.892;24.710;2023-03-16T20:53:36;96894.28;;;0.26;100.00
44001;BME280;29660;42.892;24.710;2023-03-16T20:58:58;96700.75;;;-0.91;100.00
44001;BME280;29660;42.892;24.710;2023-03-16T21:04:23;97228.25;;;2.44;100.00
44001;BME280;29660;42.892;24.710;2023-03-16T21:09:46;97241.53;;;2.49;100.00
44001;BME280;29660;42.892;24.710;2023-03-16T21:15:29;97020.72;;;1.07;100.00
44001;BME280;29660;42.892;24.710;2023-03-16T21:20:52;97163.44;;;1.96;100.00
44001;BME280;29660;42.892;24.710;2023-03-16T21:26:19;96994.41;;;0.83;100.00
44001;BME280;29660;42.892;24.710;2023-03-16T21:31:42;97216.69;;;2.33;100.00
44001;BME280;29660;42.892;24.710;2023-03-16T21:37:12;97017.13;;;0.89;100.00
44001;BME280;29660;42.892;24.710;2023-03-16T21:42:34;97256.50;;;2.37;100.00
44001;BME280;29660;42.892;24.710;2023-03-16T21:47:57;97232.22;;;2.11;100.00
44001;BME280;29660;42.892;24.710;2023-03-16T21:53:28;97016.53;;;0.76;100.00
44001;BME280;29660;42.892;24.710;2023-03-16T21:58:52;97248.03;;;2.35;100.00
44001;BME280;29660;42.892;24.710;2023-03-16T22:04:16;97240.03;;;2.30;100.00
44001;BME280;29660;42.892;24.710;2023-03-16T22:09:38;97007.97;;;0.80;100.00
44001;BME280;29660;42.892;24.710;2023-03-16T22:15:00;97258.00;;;2.44;100.00
44001;BME280;29660;42.892;24.710;2023-03-16T22:20:24;96963.28;;;0.57;100.00
44001;BME280;29660;42.892;24.710;2023-03-16T22:25:48;96914.41;;;0.32;100.00
44001;BME280;29660;42.892;24.710;2023-03-16T22:31:14;97258.09;;;2.38;100.00
44001;BME280;29660;42.892;24.710;2023-03-16T22:36:37;96758.63;;;-0.81;100.00
44001;BME280;29660;42.892;24.710;2023-03-16T22:42:00;97029.78;;;0.81;100.00
44001;BME280;29660;42.892;24.710;2023-03-16T22:47:25;97032.88;;;0.89;100.00
44001;BME280;29660;42.892;24.710;2023-03-16T22:52:50;97291.16;;;2.34;100.00
44001;BME280;29660;42.892;24.710;2023-03-16T22:58:15;97309.03;;;2.55;100.00
44001;BME280;29660;42.892;24.710;2023-03-16T23:03:39;97261.53;;;2.27;100.00
44001;BME280;29660;42.892;24.710;2023-03-16T23:09:02;97020.97;;;0.45;100.00
44001;BME280;29660;42.892;24.710;2023-03-16T23:14:28;97070.44;;;0.60;100.00
44001;BME280;29660;42.892;24.710;2023-03-16T23:19:51;97335.94;;;2.04;100.00
44001;BME280;29660;42.892;24.710;2023-03-16T23:25:14;97350.28;;;2.19;100.00
44001;BME280;29660;42.892;24.710;2023-03-16T23:30:36;97343.78;;;2.22;100.00
44001;BME280;29660;42.892;24.710;2023-03-16T23:35:58;97086.63;;;0.57;100.00
44001;BME280;29660;42.892;24.710;2023-03-16T23:41:22;97307.78;;;2.04;100.00
44001;BME280;29660;42.892;24.710;2023-03-16T23:46:44;97224.00;;;1.36;100.00
44001;BME280;29660;42.892;24.710;2023-03-16T23:52:08;97346.59;;;2.09;100.00
44001;BME280;29660;42.892;24.710;2023-03-16T23:57:31;97308.63;;;1.75;100.00
